createdAt,value
2022-12-14T00:01:38.306Z,-0.90
2022-12-14T00:04:05.454Z,-0.90
2022-12-14T00:06:33.370Z,-0.90
2022-12-14T00:09:02.814Z,-0.90
2022-12-14T00:11:30.098Z,-0.80
2022-12-14T00:13:59.655Z,-0.90
2022-12-14T00:16:28.913Z,-0.80
2022-12-14T00:18:58.059Z,-0.80
2022-12-14T00:21:25.870Z,-0.80
2022-12-14T00:23:53.863Z,-0.80
2022-12-14T00:26:31.817Z,-0.80
2022-12-14T00:29:00.168Z,-0.70
2022-12-14T00:31:27.255Z,-0.70
2022-12-14T00:33:55.435Z,-0.70
2022-12-14T00:36:22.714Z,-0.80
2022-12-14T00:38:49.692Z,-0.70
2022-12-14T00:41:16.693Z,-0.70
2022-12-14T00:43:44.174Z,-0.70
2022-12-14T00:46:11.131Z,-0.70
2022-12-14T00:48:38.098Z,-0.80
2022-12-14T00:51:05.050Z,-0.80
2022-12-14T00:53:31.979Z,-0.80
2022-12-14T00:56:06.443Z,-0.80
2022-12-14T00:58:33.842Z,-0.80
2022-12-14T01:01:10.151Z,-0.80
2022-12-14T01:03:37.184Z,-0.80
2022-12-14T01:06:04.271Z,-0.80
2022-12-14T01:08:36.140Z,-0.80
2022-12-14T01:11:08.007Z,-0.80
2022-12-14T01:13:37.516Z,-0.80
2022-12-14T01:16:10.211Z,-0.80
2022-12-14T01:18:38.654Z,-0.80
2022-12-14T01:21:23.078Z,-0.80
2022-12-14T01:24:01.640Z,-0.80
2022-12-14T01:26:30.778Z,-0.80
2022-12-14T01:28:59.491Z,-0.80
2022-12-14T01:31:30.300Z,-0.70
2022-12-14T01:33:57.851Z,-0.80
2022-12-14T01:36:33.633Z,-0.80
2022-12-14T01:39:04.228Z,-0.80
2022-12-14T01:41:40.058Z,-0.70
2022-12-14T01:44:10.274Z,-0.70
2022-12-14T01:46:46.103Z,-0.70
2022-12-14T01:49:25.379Z,-0.70
2022-12-14T01:51:54.250Z,-0.70
2022-12-14T01:54:21.350Z,-0.70
2022-12-14T01:56:48.831Z,-0.70
2022-12-14T01:59:21.377Z,-0.70
2022-12-14T02:01:48.992Z,-0.70
2022-12-14T02:04:18.789Z,-0.70
2022-12-14T02:06:48.529Z,-0.70
2022-12-14T02:09:23.106Z,-0.80
2022-12-14T02:11:56.858Z,-0.80
2022-12-14T02:14:25.279Z,-0.80
2022-12-14T02:16:55.127Z,-0.80
2022-12-14T02:19:22.019Z,-0.80
2022-12-14T02:22:13.271Z,-0.80
2022-12-14T02:25:02.177Z,-0.90
2022-12-14T02:27:41.183Z,-0.90
2022-12-14T02:30:22.909Z,-0.90
2022-12-14T02:33:08.482Z,-1.00
2022-12-14T02:35:48.256Z,-1.00
2022-12-14T02:38:39.443Z,-1.00
2022-12-14T02:41:22.537Z,-1.00
2022-12-14T02:44:22.718Z,-1.00
2022-12-14T02:47:03.282Z,-1.10
2022-12-14T02:49:30.175Z,-1.10
2022-12-14T02:52:21.254Z,-1.10
2022-12-14T02:55:01.769Z,-1.10
2022-12-14T02:57:45.415Z,-1.00
2022-12-14T03:00:13.853Z,-1.10
2022-12-14T03:02:43.839Z,-1.10
2022-12-14T03:05:11.610Z,-1.10
2022-12-14T03:08:00.704Z,-1.00
2022-12-14T03:10:32.360Z,-1.00
2022-12-14T03:13:31.596Z,-1.00
2022-12-14T03:16:04.873Z,-0.90
2022-12-14T03:18:37.986Z,-0.90
2022-12-14T03:21:07.915Z,-0.90
2022-12-14T03:23:38.999Z,-0.90
2022-12-14T03:26:28.925Z,-0.90
2022-12-14T03:29:08.939Z,-0.90
2022-12-14T03:31:52.537Z,-0.80
2022-12-14T03:34:25.227Z,-0.80
2022-12-14T03:37:11.913Z,-0.80
2022-12-14T03:39:43.594Z,-0.80
2022-12-14T03:42:13.341Z,-0.80
2022-12-14T03:44:50.031Z,-0.70
2022-12-14T03:47:16.956Z,-0.70
2022-12-14T03:50:08.983Z,-0.70
2022-12-14T03:52:44.653Z,-0.70
2022-12-14T03:55:23.549Z,-0.70
2022-12-14T03:58:06.105Z,-0.60
2022-12-14T04:00:50.791Z,-0.60
2022-12-14T04:03:17.707Z,-0.60
2022-12-14T04:05:49.674Z,-0.60
2022-12-14T04:09:03.155Z,-0.50
2022-12-14T04:11:58.940Z,-0.60
2022-12-14T04:14:50.361Z,-0.50
2022-12-14T04:17:41.062Z,-0.50
2022-12-14T04:20:16.972Z,-0.50
2022-12-14T04:22:49.975Z,-0.50
2022-12-14T04:25:41.338Z,-0.50
2022-12-14T04:28:35.289Z,-0.50
2022-12-14T04:31:07.961Z,-0.50
2022-12-14T04:33:46.791Z,-0.50
2022-12-14T04:36:39.267Z,-0.50
2022-12-14T04:39:11.335Z,-0.50
2022-12-14T04:41:43.794Z,-0.60
2022-12-14T04:44:34.815Z,-0.50
2022-12-14T04:47:04.330Z,-0.60
2022-12-14T04:49:40.519Z,-0.60
2022-12-14T04:52:24.431Z,-0.60
2022-12-14T04:55:09.923Z,-0.60
2022-12-14T04:57:47.263Z,-0.70
2022-12-14T05:00:15.564Z,-0.70
2022-12-14T05:03:17.534Z,-0.70
2022-12-14T05:05:59.322Z,-0.70
2022-12-14T05:08:53.083Z,-0.80
2022-12-14T05:14:24.697Z,-0.90
2022-12-14T05:16:51.843Z,-0.90
2022-12-14T05:19:20.486Z,-0.90
2022-12-14T05:21:47.369Z,-0.90
2022-12-14T05:24:14.843Z,-0.90
2022-12-14T05:26:41.796Z,-0.90
2022-12-14T05:29:08.823Z,-0.90
2022-12-14T05:31:35.969Z,-0.90
2022-12-14T05:34:03.348Z,-0.90
2022-12-14T05:36:30.243Z,-0.90
2022-12-14T05:38:57.184Z,-0.90
2022-12-14T05:41:24.127Z,-0.90
2022-12-14T05:43:50.990Z,-0.90
2022-12-14T05:46:18.569Z,-0.90
2022-12-14T05:48:49.143Z,-1.00
2022-12-14T05:51:17.482Z,-0.90
2022-12-14T05:53:44.817Z,-1.00
2022-12-14T05:56:12.510Z,-1.00
2022-12-14T05:58:39.654Z,-1.00
2022-12-14T06:01:13.921Z,-1.00
2022-12-14T06:03:44.291Z,-1.10
2022-12-14T06:06:13.928Z,-1.10
2022-12-14T06:08:44.630Z,-1.10
2022-12-14T06:11:17.727Z,-1.10
2022-12-14T06:13:45.017Z,-1.00
2022-12-14T06:16:20.769Z,-1.10
2022-12-14T06:18:54.159Z,-1.10
2022-12-14T06:21:25.709Z,-1.10
2022-12-14T06:23:52.999Z,-1.10
2022-12-14T06:26:19.992Z,-1.10
2022-12-14T06:28:47.077Z,-1.10
2022-12-14T06:31:19.026Z,-1.10
2022-12-14T06:33:46.360Z,-1.10
2022-12-14T06:36:20.141Z,-1.10
2022-12-14T06:38:47.274Z,-1.10
2022-12-14T06:41:14.259Z,-1.10
2022-12-14T06:43:41.161Z,-1.10
2022-12-14T06:46:15.814Z,-1.10
2022-12-14T06:48:43.513Z,-1.10
2022-12-14T06:51:11.625Z,-1.20
2022-12-14T06:53:38.471Z,-1.20
2022-12-14T06:56:13.948Z,-1.20
2022-12-14T06:58:41.535Z,-1.20
2022-12-14T07:01:13.448Z,-1.20
2022-12-14T07:03:42.325Z,-1.30
2022-12-14T07:06:10.196Z,-1.20
2022-12-14T07:08:38.904Z,-1.30
2022-12-14T07:11:08.562Z,-1.30
2022-12-14T07:13:35.863Z,-1.20
2022-12-14T07:16:04.910Z,-1.30
2022-12-14T07:18:32.968Z,-1.30
2022-12-14T07:21:09.762Z,-1.30
2022-12-14T07:23:37.884Z,-1.30
2022-12-14T07:26:11.146Z,-1.30
2022-12-14T07:28:39.516Z,-1.30
2022-12-14T07:31:10.226Z,-1.40
2022-12-14T07:33:37.451Z,-1.40
2022-12-14T07:36:09.174Z,-1.40
2022-12-14T07:38:38.160Z,-1.40
2022-12-14T07:41:22.057Z,-1.40
2022-12-14T07:43:50.386Z,-1.40
2022-12-14T07:46:22.530Z,-1.40
2022-12-14T07:48:54.915Z,-1.50
2022-12-14T07:51:25.509Z,-1.40
2022-12-14T07:53:52.775Z,-1.40
2022-12-14T07:56:21.929Z,-1.40
2022-12-14T07:58:49.526Z,-1.40
2022-12-14T08:01:30.236Z,-1.30
2022-12-14T08:04:05.293Z,-1.30
2022-12-14T08:06:32.834Z,-1.30
2022-12-14T08:09:01.725Z,-1.20
2022-12-14T08:11:30.208Z,-1.10
2022-12-14T08:14:02.195Z,-1.00
2022-12-14T08:16:29.708Z,-1.00
2022-12-14T08:18:58.465Z,-0.80
2022-12-14T08:21:26.870Z,-0.50
2022-12-14T08:23:54.867Z,-0.20
2022-12-14T08:26:23.013Z,0.20
2022-12-14T08:28:50.022Z,1.10
2022-12-14T08:31:19.276Z,2.40
2022-12-14T08:33:47.407Z,3.70
2022-12-14T08:36:16.687Z,4.90
2022-12-14T08:38:43.585Z,6.00
2022-12-14T08:41:15.219Z,6.80
2022-12-14T08:43:42.396Z,7.60
2022-12-14T08:46:10.898Z,8.40
2022-12-14T08:48:38.242Z,9.20
2022-12-14T08:51:07.626Z,10.00
2022-12-14T08:53:34.887Z,10.90
2022-12-14T08:56:07.261Z,11.90
2022-12-14T08:58:34.874Z,12.70
2022-12-14T09:01:07.081Z,13.40
2022-12-14T09:03:34.366Z,13.60
2022-12-14T09:06:05.865Z,13.70
2022-12-14T09:08:32.925Z,14.00
2022-12-14T09:11:00.678Z,14.50
2022-12-14T09:13:29.254Z,15.00
2022-12-14T09:15:57.960Z,15.20
2022-12-14T09:18:24.952Z,15.40
2022-12-14T09:20:54.491Z,15.60
2022-12-14T09:23:23.285Z,15.90
2022-12-14T09:26:08.436Z,16.00
2022-12-14T09:28:37.642Z,16.00
2022-12-14T09:31:07.598Z,16.10
2022-12-14T09:33:35.022Z,16.20
2022-12-14T09:36:06.445Z,16.30
2022-12-14T09:38:35.625Z,16.60
2022-12-14T09:41:22.818Z,16.80
2022-12-14T09:44:16.304Z,16.60
2022-12-14T09:47:00.164Z,16.70
2022-12-14T09:49:34.036Z,17.00
2022-12-14T09:52:06.665Z,17.00
2022-12-14T09:54:37.121Z,17.00
2022-12-14T09:57:26.226Z,17.10
2022-12-14T09:59:54.592Z,17.20
2022-12-14T10:02:42.537Z,17.40
2022-12-14T10:05:12.583Z,17.50
2022-12-14T10:08:11.328Z,17.60
2022-12-14T10:11:00.455Z,17.80
2022-12-14T10:13:33.096Z,18.00
2022-12-14T10:16:10.341Z,18.10
2022-12-14T10:18:59.562Z,18.20
2022-12-14T10:21:47.358Z,18.30
2022-12-14T10:24:29.555Z,18.20
2022-12-14T10:26:56.804Z,17.80
2022-12-14T10:29:30.148Z,17.60
2022-12-14T10:32:15.883Z,17.50
2022-12-14T10:34:45.982Z,17.60
2022-12-14T10:37:25.833Z,17.50
2022-12-14T10:40:17.452Z,17.40
2022-12-14T10:43:17.399Z,17.40
2022-12-14T10:46:10.229Z,17.40
2022-12-14T10:49:01.324Z,17.40
2022-12-14T10:51:39.517Z,17.20
2022-12-14T10:54:15.618Z,17.10
2022-12-14T10:56:43.936Z,17.20
2022-12-14T10:59:23.983Z,17.30
2022-12-14T11:02:17.873Z,17.30
2022-12-14T11:04:52.656Z,17.10
2022-12-14T11:07:22.260Z,17.10
2022-12-14T11:09:49.400Z,17.00
2022-12-14T11:12:20.794Z,17.10
2022-12-14T11:15:04.864Z,17.10
2022-12-14T11:17:41.193Z,16.90
2022-12-14T11:20:19.783Z,16.90
2022-12-14T11:22:55.106Z,16.80
2022-12-14T11:25:39.046Z,16.70
2022-12-14T11:28:18.251Z,16.60
2022-12-14T11:30:55.269Z,16.40
2022-12-14T11:33:24.581Z,16.20
2022-12-14T11:35:52.725Z,16.00
2022-12-14T11:38:20.249Z,15.50
2022-12-14T11:40:47.640Z,15.10
2022-12-14T11:43:35.277Z,14.60
2022-12-14T11:46:02.494Z,14.00
2022-12-14T11:48:30.124Z,13.50
2022-12-14T11:51:12.395Z,12.90
2022-12-14T11:53:40.379Z,12.30
2022-12-14T11:56:16.087Z,12.00
2022-12-14T11:58:54.735Z,11.70
2022-12-14T12:01:25.713Z,11.40
2022-12-14T12:03:57.325Z,11.10
2022-12-14T12:06:29.931Z,10.90
2022-12-14T12:09:02.702Z,10.80
2022-12-14T12:11:34.626Z,10.60
2022-12-14T12:14:05.797Z,10.60
2022-12-14T12:16:33.520Z,10.30
2022-12-14T12:19:00.389Z,10.10
2022-12-14T12:21:32.771Z,9.90
2022-12-14T12:24:11.403Z,9.70
2022-12-14T12:26:40.427Z,9.50
2022-12-14T12:29:29.830Z,9.30
2022-12-14T12:32:21.322Z,9.10
2022-12-14T12:34:53.526Z,8.90
2022-12-14T12:37:33.675Z,8.90
2022-12-14T12:40:38.871Z,8.90
2022-12-14T12:43:21.986Z,8.90
2022-12-14T12:46:01.295Z,8.90
2022-12-14T12:48:51.662Z,8.90
2022-12-14T12:51:29.341Z,8.80
2022-12-14T12:54:04.755Z,8.90
2022-12-14T12:56:48.193Z,8.80
2022-12-14T12:59:22.170Z,8.70
2022-12-14T13:01:55.698Z,8.70
2022-12-14T13:04:33.978Z,8.70
2022-12-14T13:07:06.392Z,8.70
2022-12-14T13:09:48.794Z,8.70
2022-12-14T13:12:25.435Z,8.60
2022-12-14T13:14:55.135Z,8.60
2022-12-14T13:17:34.002Z,8.60
2022-12-14T13:20:06.872Z,8.40
2022-12-14T13:22:36.547Z,8.40
2022-12-14T13:25:12.786Z,8.30
2022-12-14T13:27:40.803Z,8.20
2022-12-14T13:30:31.743Z,8.20
2022-12-14T13:33:17.406Z,8.20
2022-12-14T13:36:10.346Z,8.00
2022-12-14T13:39:02.370Z,7.90
2022-12-14T13:41:43.158Z,7.60
2022-12-14T13:44:33.581Z,7.60
2022-12-14T13:47:05.858Z,7.60
2022-12-14T13:49:33.736Z,7.50
2022-12-14T13:52:00.896Z,7.40
2022-12-14T13:54:34.433Z,7.30
2022-12-14T13:57:03.342Z,7.30
2022-12-14T13:59:38.146Z,7.20
2022-12-14T14:02:06.790Z,7.20
2022-12-14T14:04:35.787Z,7.10
2022-12-14T14:07:24.649Z,7.00
2022-12-14T14:10:05.850Z,7.00
2022-12-14T14:12:41.956Z,6.90
2022-12-14T14:15:08.788Z,6.80
2022-12-14T14:17:42.969Z,6.80
2022-12-14T14:20:40.970Z,6.80
2022-12-14T14:23:15.505Z,6.70
2022-12-14T14:25:54.418Z,6.70
2022-12-14T14:28:27.911Z,6.70
2022-12-14T14:30:56.949Z,6.70
2022-12-14T14:33:47.180Z,6.70
2022-12-14T14:36:36.022Z,6.60
2022-12-14T14:39:24.438Z,6.60
2022-12-14T14:41:55.114Z,6.50
2022-12-14T14:44:43.126Z,6.50
2022-12-14T14:47:24.709Z,6.50
2022-12-14T14:49:57.888Z,6.40
2022-12-14T14:52:40.102Z,6.20
2022-12-14T14:55:52.115Z,6.00
2022-12-14T14:58:26.299Z,5.80
2022-12-14T15:01:02.467Z,5.50
2022-12-14T15:03:39.249Z,5.30
2022-12-14T15:06:15.931Z,5.10
2022-12-14T15:09:00.608Z,4.90
2022-12-14T15:11:31.903Z,4.70
2022-12-14T15:14:01.605Z,4.50
2022-12-14T15:16:32.305Z,4.40
2022-12-14T15:19:21.202Z,4.20
2022-12-14T15:22:02.622Z,4.10
2022-12-14T15:24:42.218Z,4.00
2022-12-14T15:27:39.322Z,3.90
2022-12-14T15:30:24.711Z,3.80
2022-12-14T15:33:04.447Z,3.60
2022-12-14T15:35:35.298Z,3.50
2022-12-14T15:38:06.363Z,3.30
2022-12-14T15:40:35.364Z,3.20
2022-12-14T15:43:20.985Z,3.10
2022-12-14T15:45:53.259Z,3.00
2022-12-14T15:48:23.422Z,2.90
2022-12-14T15:50:56.550Z,2.80
2022-12-14T15:53:50.175Z,2.70
2022-12-14T15:56:31.659Z,2.50
2022-12-14T15:59:01.877Z,2.50
2022-12-14T16:01:40.498Z,2.40
2022-12-14T16:04:13.346Z,2.30
2022-12-14T16:06:44.458Z,2.30
2022-12-14T16:09:31.086Z,2.20
2022-12-14T16:12:15.102Z,2.20
2022-12-14T16:14:48.702Z,2.20
2022-12-14T16:17:24.916Z,2.10
2022-12-14T16:19:59.934Z,2.00
2022-12-14T16:22:32.171Z,2.00
2022-12-14T16:25:04.424Z,1.80
2022-12-14T16:27:50.452Z,1.80
2022-12-14T16:30:23.465Z,1.70
2022-12-14T16:33:13.822Z,1.60
2022-12-14T16:35:40.939Z,1.60
2022-12-14T16:38:13.058Z,1.50
2022-12-14T16:40:41.998Z,1.50
2022-12-14T16:43:29.389Z,1.50
2022-12-14T16:46:05.458Z,1.40
2022-12-14T16:48:36.135Z,1.40
2022-12-14T16:51:38.415Z,1.30
2022-12-14T16:54:32.463Z,1.30
2022-12-14T16:57:31.492Z,1.20
2022-12-14T17:00:01.894Z,1.20
2022-12-14T17:02:40.709Z,1.10
2022-12-14T17:05:19.462Z,1.10
2022-12-14T17:07:46.630Z,1.10
2022-12-14T17:10:23.479Z,1.10
2022-12-14T17:12:53.614Z,1.10
2022-12-14T17:15:22.548Z,1.10
2022-12-14T17:17:54.913Z,1.10
2022-12-14T17:20:25.969Z,1.20
2022-12-14T17:22:54.695Z,1.30
2022-12-14T17:25:21.660Z,1.30
2022-12-14T17:27:49.843Z,1.30
2022-12-14T17:30:21.857Z,1.40
2022-12-14T17:32:49.337Z,1.40
2022-12-14T17:35:18.820Z,1.40
2022-12-14T17:37:45.973Z,1.40
2022-12-14T17:40:13.003Z,1.40
2022-12-14T17:42:41.943Z,1.40
2022-12-14T17:45:22.295Z,1.40
2022-12-14T17:47:49.406Z,1.40
2022-12-14T17:50:18.008Z,1.40
2022-12-14T17:52:45.306Z,1.40
2022-12-14T17:55:21.605Z,1.40
2022-12-14T17:57:48.990Z,1.40
2022-12-14T18:00:40.303Z,1.50
2022-12-14T18:03:08.062Z,1.50
2022-12-14T18:05:35.079Z,1.50
2022-12-14T18:08:02.175Z,1.50
2022-12-14T18:10:29.287Z,1.40
2022-12-14T18:12:57.015Z,1.40
2022-12-14T18:15:24.565Z,1.30
2022-12-14T18:17:51.715Z,1.30
2022-12-14T18:20:20.493Z,1.20
2022-12-14T18:22:49.807Z,1.20
2022-12-14T18:25:29.217Z,1.20
2022-12-14T18:27:56.504Z,1.20
2022-12-14T18:30:23.415Z,1.10
2022-12-14T18:32:50.322Z,1.10
2022-12-14T18:35:19.851Z,1.10
2022-12-14T18:37:49.483Z,1.10
2022-12-14T18:40:18.361Z,1.20
2022-12-14T18:42:46.265Z,1.20
2022-12-14T18:45:24.844Z,1.10
2022-12-14T18:47:52.577Z,1.10
2022-12-14T18:50:20.158Z,1.10
2022-12-14T18:52:47.815Z,1.10
2022-12-14T18:55:17.804Z,1.00
2022-12-14T18:57:47.154Z,1.00
2022-12-14T19:00:39.735Z,1.00
2022-12-14T19:03:06.875Z,1.00
2022-12-14T19:05:33.937Z,0.90
2022-12-14T19:08:01.882Z,1.00
2022-12-14T19:10:31.914Z,1.00
2022-12-14T19:12:59.285Z,1.00
2022-12-14T19:15:29.344Z,0.90
2022-12-14T19:17:56.742Z,0.90
2022-12-14T19:20:24.696Z,0.90
2022-12-14T19:22:52.881Z,0.90
2022-12-14T19:25:22.433Z,0.90
2022-12-14T19:30:40.187Z,0.90
2022-12-14T19:33:07.261Z,0.90
2022-12-14T19:35:34.138Z,0.90
2022-12-14T19:38:01.030Z,0.90
2022-12-14T19:40:29.947Z,0.90
2022-12-14T19:42:58.387Z,0.90
2022-12-14T19:45:25.428Z,1.00
2022-12-14T19:47:52.288Z,1.00
2022-12-14T19:50:19.237Z,0.90
2022-12-14T19:52:46.271Z,0.90
2022-12-14T19:55:13.229Z,0.90
2022-12-14T19:57:40.710Z,0.90
2022-12-14T20:00:09.234Z,0.90
2022-12-14T20:02:37.510Z,0.80
2022-12-14T20:05:06.446Z,0.80
2022-12-14T20:07:36.326Z,0.80
2022-12-14T20:10:07.790Z,0.70
2022-12-14T20:12:34.760Z,0.70
2022-12-14T20:15:01.642Z,0.70
2022-12-14T20:17:28.615Z,0.70
2022-12-14T20:19:55.585Z,0.70
2022-12-14T20:22:22.475Z,0.70
2022-12-14T20:24:49.875Z,0.70
2022-12-14T20:27:17.193Z,0.70
2022-12-14T20:29:44.087Z,0.70
2022-12-14T20:32:11.781Z,0.60
2022-12-14T20:34:39.288Z,0.60
2022-12-14T20:37:08.155Z,0.50
2022-12-14T20:39:35.096Z,0.50
2022-12-14T20:42:01.959Z,0.50
2022-12-14T20:44:29.317Z,0.50
2022-12-14T20:46:56.622Z,0.50
2022-12-14T20:49:29.513Z,0.50
2022-12-14T20:51:56.958Z,0.50
2022-12-14T20:54:24.192Z,0.40
2022-12-14T20:56:51.340Z,0.40
2022-12-14T20:59:18.421Z,0.30
2022-12-14T21:01:51.739Z,0.30
2022-12-14T21:04:20.693Z,0.20
2022-12-14T21:06:47.722Z,0.20
2022-12-14T21:09:15.225Z,0.20
2022-12-14T21:12:06.068Z,0.20
2022-12-14T21:14:35.240Z,0.20
2022-12-14T21:17:03.934Z,0.20
2022-12-14T21:19:32.312Z,0.20
2022-12-14T21:21:59.380Z,0.20
2022-12-14T21:27:19.525Z,0.20
2022-12-14T21:29:47.320Z,0.20
2022-12-14T21:32:14.799Z,0.10
2022-12-14T21:34:43.099Z,0.10
2022-12-14T21:37:10.072Z,0.10
2022-12-14T21:39:37.035Z,0.10
2022-12-14T21:42:14.079Z,0.10
2022-12-14T21:44:45.865Z,0.10
2022-12-14T21:47:15.552Z,0.10
2022-12-14T21:49:44.746Z,0.20
2022-12-14T21:52:20.808Z,0.20
2022-12-14T21:54:47.708Z,0.20
2022-12-14T21:57:34.565Z,0.20
2022-12-14T22:00:01.716Z,0.20
2022-12-14T22:02:29.364Z,0.20
2022-12-14T22:04:56.479Z,0.30
2022-12-14T22:07:26.510Z,0.30
2022-12-14T22:09:53.430Z,0.30
2022-12-14T22:12:20.302Z,0.30
2022-12-14T22:14:49.370Z,0.30
2022-12-14T22:17:16.423Z,0.30
2022-12-14T22:19:43.293Z,0.30
2022-12-14T22:22:16.495Z,0.30
2022-12-14T22:24:45.051Z,0.30
2022-12-14T22:27:12.769Z,0.30
2022-12-14T22:29:39.978Z,0.30
2022-12-14T22:32:07.433Z,0.20
2022-12-14T22:34:34.852Z,0.20
2022-12-14T22:37:01.834Z,0.10
2022-12-14T22:39:28.807Z,0.10
2022-12-14T22:41:55.765Z,0.00
2022-12-14T22:44:22.640Z,0.00
2022-12-14T22:46:50.064Z,0.00
2022-12-14T22:49:19.282Z,0.00
2022-12-14T22:51:46.542Z,0.00
2022-12-14T22:54:21.092Z,-0.10
2022-12-14T22:56:52.718Z,-0.10
2022-12-14T22:59:25.644Z,-0.10
2022-12-14T23:01:53.267Z,-0.10
2022-12-14T23:04:21.145Z,-0.10
2022-12-14T23:06:48.181Z,-0.10
2022-12-14T23:09:33.410Z,-0.10
2022-12-14T23:12:21.866Z,-0.10
2022-12-14T23:15:07.893Z,-0.10
2022-12-14T23:17:54.222Z,-0.20
2022-12-14T23:20:39.567Z,-0.10
2022-12-14T23:23:26.713Z,-0.20
2022-12-14T23:26:12.920Z,-0.20
2022-12-14T23:28:59.135Z,-0.10
2022-12-14T23:31:44.511Z,-0.20
2022-12-14T23:34:29.811Z,-0.10
2022-12-14T23:37:20.173Z,-0.20
2022-12-14T23:40:06.690Z,-0.10
2022-12-14T23:42:52.118Z,-0.10
2022-12-14T23:45:37.440Z,-0.10
2022-12-14T23:48:22.828Z,-0.10
2022-12-14T23:51:08.098Z,-0.10
2022-12-14T23:53:53.478Z,-0.10
2022-12-14T23:56:38.800Z,-0.10
2022-12-14T23:59:29.915Z,-0.10
